Time;durP1;ratioP1;P1;durP2;ratioP2;P2;SDS_P1;SDS_P2;PMS_P1;PMS_P2;Temp;Humidity;BMP_temperature;BMP_pressure;BME280_temperature;BME280_humidity;BME280_pressure;Samples;Min_cycle;Max_cycle;Signal;HPM_P1;HPM_P2
2021/01/09 00:02:02;;;;;;;26.40;17.23;;;;;;;-0.58;72.11;95985.44;5090020;27;20602;-56
2021/01/09 00:04:30;;;;;;;28.10;17.63;;;;;;;-0.59;72.17;95989.00;5072002;27;20055;-57
2021/01/09 00:06:57;;;;;;;25.42;16.85;;;;;;;-0.63;72.31;95972.25;5104268;27;20074;-57
2021/01/09 00:09:24;;;;;;;23.05;15.90;;;;;;;-0.47;71.79;95987.53;5089375;28;20047;-57
2021/01/09 00:11:52;;;;;;;31.05;19.50;;;;;;;-0.52;72.17;95982.13;5086639;27;20055;-56
2021/01/09 00:14:20;;;;;;;28.63;17.75;;;;;;;-0.57;72.52;95981.06;5099647;27;20059;-58
2021/01/09 00:16:48;;;;;;;30.58;18.77;;;;;;;-0.53;72.03;95983.09;5086283;27;20043;-57
2021/01/09 00:19:16;;;;;;;28.83;17.13;;;;;;;-0.50;71.93;95990.53;5096799;27;20047;-57
2021/01/09 00:21:43;;;;;;;30.15;18.10;;;;;;;-0.46;71.84;95990.94;5088494;27;20047;-57
2021/01/09 00:24:11;;;;;;;31.85;20.73;;;;;;;-0.40;71.99;95987.59;5106051;27;20591;-57
2021/01/09 00:26:38;;;;;;;27.20;19.10;;;;;;;-0.48;71.05;95965.19;5104853;27;20439;-56
2021/01/09 00:29:06;;;;;;;29.25;17.90;;;;;;;-0.34;71.08;95986.06;5105394;27;20426;-57
2021/01/09 00:31:36;;;;;;;25.02;16.35;;;;;;;-0.27;70.96;95991.31;5105586;27;20043;-57
2021/01/09 00:34:04;;;;;;;24.98;17.30;;;;;;;-0.32;70.85;95984.91;5085618;28;20047;-57
2021/01/09 00:36:31;;;;;;;30.90;19.85;;;;;;;-0.40;71.17;95987.59;5094727;28;20069;-57
2021/01/09 00:38:59;;;;;;;31.65;20.52;;;;;;;-0.45;71.62;95982.19;5085716;28;20047;-58
2021/01/09 00:41:31;;;;;;;31.15;20.50;;;;;;;-0.46;71.59;95983.19;5111336;28;20054;-57
2021/01/09 00:43:59;;;;;;;34.53;19.13;;;;;;;-0.42;71.96;95986.19;5105567;28;20062;-57
2021/01/09 00:46:26;;;;;;;37.22;23.58;;;;;;;-0.44;71.65;95988.97;5104214;27;20407;-56
2021/01/09 00:48:54;;;;;;;33.15;20.10;;;;;;;-0.60;72.82;95976.25;5103290;27;20457;-57
2021/01/09 00:51:21;;;;;;;35.85;21.85;;;;;;;-0.58;72.56;95995.78;5086962;27;20058;-57
2021/01/09 00:53:48;;;;;;;36.78;21.95;;;;;;;-0.60;72.58;95999.56;5098909;28;20581;-59
2021/01/09 00:56:16;;;;;;;32.65;21.17;;;;;;;-0.52;72.43;96002.03;5086664;28;20056;-57
2021/01/09 00:58:43;;;;;;;40.47;25.48;;;;;;;-0.67;72.56;95984.72;5098109;28;20035;-56
2021/01/09 01:01:11;;;;;;;30.48;19.08;;;;;;;-0.50;71.63;96013.03;5089575;28;20071;-57
2021/01/09 01:03:42;;;;;;;31.42;19.17;;;;;;;-0.46;71.32;96019.44;5109502;28;20442;-57
2021/01/09 01:06:10;;;;;;;27.73;16.90;;;;;;;-0.41;70.52;96017.09;5108997;28;20377;-57
2021/01/09 01:08:38;;;;;;;26.10;16.42;;;;;;;-0.40;70.54;96020.50;5089666;27;20040;-56
2021/01/09 01:11:06;;;;;;;25.40;16.25;;;;;;;-0.38;70.22;96023.72;5103153;28;20506;-57
2021/01/09 01:13:32;;;;;;;18.20;12.55;;;;;;;-0.41;69.05;96019.69;5104325;28;20540;-57
2021/01/09 01:16:00;;;;;;;17.25;12.13;;;;;;;-0.40;69.30;96016.13;5055676;28;20541;-56
2021/01/09 01:18:28;;;;;;;19.00;11.00;;;;;;;-0.34;68.34;96009.38;5068783;28;20052;-56
2021/01/09 01:20:55;;;;;;;19.75;12.93;;;;;;;-0.37;68.92;96013.16;5103449;28;20559;-56
2021/01/09 01:23:22;;;;;;;19.58;12.02;;;;;;;-0.36;69.12;96009.59;5104576;28;20428;-56
2021/01/09 01:25:50;;;;;;;20.25;12.10;;;;;;;-0.31;68.16;95996.84;5084719;28;20047;-57
2021/01/09 01:28:24;;;;;;;16.52;10.88;;;;;;;-0.24;68.12;95998.72;5110720;28;20039;-56
2021/01/09 01:30:53;;;;;;;18.00;11.07;;;;;;;-0.38;68.16;95988.22;5070002;27;1077570;-56
2021/01/09 01:33:20;;;;;;;19.20;11.93;;;;;;;-0.41;67.78;95998.94;5101545;27;20538;-56
2021/01/09 01:35:49;;;;;;;17.98;11.25;;;;;;;-0.41;67.67;95998.94;5109124;27;20055;-56
2021/01/09 01:38:19;;;;;;;17.20;11.68;;;;;;;-0.37;66.58;95996.81;5111355;27;20054;-58
2021/01/09 01:40:47;;;;;;;14.88;11.10;;;;;;;-0.35;67.72;96002.59;5109724;27;20048;-57
2021/01/09 01:43:16;;;;;;;18.10;9.93;;;;;;;-0.41;66.52;95983.41;5087546;27;20040;-56
2021/01/09 01:45:43;;;;;;;15.82;10.88;;;;;;;-0.26;66.83;95996.31;5083506;27;20055;-57
2021/01/09 01:48:11;;;;;;;19.30;13.48;;;;;;;-0.21;66.98;96000.97;5097199;28;20047;-57
2021/01/09 01:50:38;;;;;;;16.52;9.82;;;;;;;-0.23;66.27;95998.53;5114253;27;20944;-57
2021/01/09 01:53:07;;;;;;;13.70;9.35;;;;;;;-0.31;66.51;95996.84;5083361;27;20047;-56
2021/01/09 01:55:34;;;;;;;15.85;10.88;;;;;;;-0.34;66.62;95994.66;5081375;27;20051;-56
2021/01/09 01:58:02;;;;;;;16.77;11.15;;;;;;;-0.40;67.28;95997.97;5099759;28;20042;-57
2021/01/09 02:00:30;;;;;;;19.48;10.88;;;;;;;-0.42;67.94;95999.94;5115164;27;20052;-57
2021/01/09 02:02:57;;;;;;;19.77;11.98;;;;;;;-0.40;67.41;95992.78;5115766;27;20051;-57
2021/01/09 02:05:34;;;;;;;15.80;10.25;;;;;;;-0.45;68.15;95996.91;5090265;27;20064;-78
2021/01/09 02:08:06;;;;;;;18.83;11.25;;;;;;;-0.48;67.70;96000.69;5097545;27;20054;-57
2021/01/09 02:10:34;;;;;;;16.95;10.70;;;;;;;-0.55;67.25;95981.66;5073134;28;20279;-57
2021/01/09 02:13:12;;;;;;;19.13;11.75;;;;;;;-0.35;66.89;95994.81;5076912;27;20055;-56
2021/01/09 02:15:40;;;;;;;18.00;11.13;;;;;;;-0.30;66.77;95997.69;5083477;27;20367;-57
2021/01/09 02:18:07;;;;;;;19.13;12.38;;;;;;;-0.27;66.48;95996.50;5105352;27;20035;-58
2021/01/09 02:20:41;;;;;;;15.65;10.18;;;;;;;-0.24;66.79;95998.72;5105145;27;20047;-59
2021/01/09 02:23:09;;;;;;;17.77;11.43;;;;;;;-0.30;66.55;95989.91;5108405;27;20241;-57
2021/01/09 02:25:36;;;;;;;17.27;10.43;;;;;;;-0.37;67.58;95991.63;5088153;27;20074;-57
2021/01/09 02:28:04;;;;;;;19.30;12.27;;;;;;;-0.41;67.83;95998.16;5091431;27;20054;-57
2021/01/09 02:30:36;;;;;;;16.17;10.18;;;;;;;-0.46;68.30;95993.53;5103226;27;20284;-57
2021/01/09 02:33:10;;;;;;;23.35;13.80;;;;;;;-0.47;68.04;95995.31;5096083;27;20039;-57
2021/01/09 02:35:40;;;;;;;19.77;10.43;;;;;;;-0.49;67.88;95991.31;5064957;27;20451;-57
2021/01/09 02:38:12;;;;;;;16.75;10.35;;;;;;;-0.58;67.93;95976.88;5082454;27;20044;-56
2021/01/09 02:40:40;;;;;;;15.57;10.27;;;;;;;-0.49;67.83;95991.31;5105033;27;20439;-57
2021/01/09 02:43:12;;;;;;;13.25;9.25;;;;;;;-0.59;67.75;95973.47;5071581;27;20093;-56
2021/01/09 02:45:40;;;;;;;15.93;9.90;;;;;;;-0.44;68.05;95993.34;5099055;27;20686;-57
2021/01/09 02:48:08;;;;;;;16.55;10.30;;;;;;;-0.41;67.61;95990.38;5105228;27;20047;-57
2021/01/09 02:50:35;;;;;;;15.38;9.60;;;;;;;-0.44;66.85;95976.03;5084985;27;20523;-59
2021/01/09 02:53:03;;;;;;;16.80;10.18;;;;;;;-0.33;65.68;95988.50;5089997;27;20052;-57
2021/01/09 02:55:31;;;;;;;15.23;8.82;;;;;;;-0.31;65.89;95993.47;5090320;27;20051;-58
2021/01/09 02:57:58;;;;;;;11.68;7.18;;;;;;;-0.33;65.23;95991.09;5085256;28;20063;-56
2021/01/09 03:00:26;;;;;;;10.45;7.63;;;;;;;-0.45;65.38;95979.59;5083642;27;20490;-57
2021/01/09 03:02:53;;;;;;;14.02;8.60;;;;;;;-0.35;65.89;95995.66;5099614;27;20156;-57
2021/01/09 03:05:27;;;;;;;14.65;9.23;;;;;;;-0.35;66.00;95995.66;5103811;27;20399;-57
2021/01/09 03:07:54;;;;;;;14.98;9.43;;;;;;;-0.32;66.31;96000.47;5081341;28;20518;-58
2021/01/09 03:10:21;;;;;;;18.73;10.45;;;;;;;-0.33;65.63;95998.84;5104759;27;20043;-57
2021/01/09 03:12:51;;;;;;;15.18;10.10;;;;;;;-0.37;65.96;95989.84;5106489;27;20113;-57
2021/01/09 03:15:21;;;;;;;19.23;13.50;;;;;;;-0.38;66.57;95997.81;5108927;27;20051;-58
2021/01/09 03:17:49;;;;;;;19.10;11.68;;;;;;;-0.49;66.45;95986.91;5069389;28;20039;-65
2021/01/09 03:20:18;;;;;;;17.67;10.55;;;;;;;-0.43;66.79;95990.56;5110538;27;20384;-58
2021/01/09 03:22:45;;;;;;;18.10;10.55;;;;;;;-0.40;66.99;95986.81;5084415;28;20055;-58
2021/01/09 03:25:13;;;;;;;16.50;11.05;;;;;;;-0.51;67.24;95975.13;5076207;28;20450;-57
2021/01/09 03:27:40;;;;;;;16.00;10.90;;;;;;;-0.41;67.07;95993.78;5082593;28;20403;-57
2021/01/09 03:30:07;;;;;;;16.38;11.15;;;;;;;-0.47;66.61;95979.75;5081111;28;20043;-57
2021/01/09 03:32:34;;;;;;;18.55;11.88;;;;;;;-0.48;66.70;95980.75;5102569;27;20507;-57
2021/01/09 03:35:02;;;;;;;16.88;10.68;;;;;;;-0.36;66.12;95996.63;5103688;28;20519;-57
2021/01/09 03:37:30;;;;;;;16.65;10.75;;;;;;;-0.33;66.42;96001.44;5096933;27;22386;-57
2021/01/09 03:39:57;;;;;;;15.68;11.13;;;;;;;-0.35;66.30;95994.81;5103371;28;20599;-57
2021/01/09 03:42:24;;;;;;;19.88;10.82;;;;;;;-0.41;67.11;95995.56;5067836;28;20059;-58
2021/01/09 03:44:51;;;;;;;17.75;11.23;;;;;;;-0.47;67.33;95986.75;5102341;28;20470;-60
2021/01/09 03:47:19;;;;;;;17.67;12.68;;;;;;;-0.42;67.61;96004.34;5051597;28;20138;-57
2021/01/09 03:49:46;;;;;;;15.88;10.70;;;;;;;-0.40;68.00;95997.19;5083819;28;20072;-57
2021/01/09 03:52:13;;;;;;;17.13;11.07;;;;;;;-0.36;68.16;96004.41;5048388;28;20229;-57
2021/01/09 03:54:42;;;;;;;19.27;10.95;;;;;;;-0.35;66.98;96005.19;5102697;28;20043;-57
2021/01/09 03:57:09;;;;;;;21.95;12.32;;;;;;;-0.36;66.84;96009.59;5101945;27;20047;-56
2021/01/09 03:59:37;;;;;;;19.83;12.88;;;;;;;-0.39;67.58;96014.34;5091425;28;20054;-57
2021/01/09 04:02:04;;;;;;;19.23;11.85;;;;;;;-0.42;67.15;96010.31;5072720;28;20147;-57
2021/01/09 04:04:34;;;;;;;21.38;12.90;;;;;;;-0.44;67.74;96020.06;5072861;28;20052;-57
2021/01/09 04:07:02;;;;;;;18.73;10.98;;;;;;;-0.50;67.48;96008.66;5081169;28;20036;-57
2021/01/09 04:09:30;;;;;;;16.00;10.18;;;;;;;-0.47;67.21;96012.66;5074588;28;20051;-57
2021/01/09 04:11:57;;;;;;;19.10;10.38;;;;;;;-0.37;66.93;96026.13;5092717;27;20043;-58
2021/01/09 04:14:24;;;;;;;13.30;9.13;;;;;;;-0.32;66.91;96036.75;5099059;28;20055;-58
2021/01/09 04:16:51;;;;;;;16.55;10.52;;;;;;;-0.33;66.31;96031.72;5098776;27;20044;-57
2021/01/09 04:19:19;;;;;;;15.85;10.43;;;;;;;-0.37;66.41;96031.31;5100986;27;20048;-57
2021/01/09 04:21:51;;;;;;;14.60;8.50;;;;;;;-0.37;66.28;96031.31;5071050;27;20051;-59
2021/01/09 04:24:20;;;;;;;19.15;10.57;;;;;;;-0.45;66.73;96013.28;5107043;27;20047;-57
2021/01/09 04:26:53;;;;;;;14.48;9.45;;;;;;;-0.36;66.60;96030.31;5105700;27;20243;-62
2021/01/09 04:29:21;;;;;;;18.23;11.60;;;;;;;-0.36;66.84;96021.72;5080405;28;20041;-57
2021/01/09 04:31:49;;;;;;;17.00;11.27;;;;;;;-0.35;67.11;96029.34;5064658;28;20471;-57
2021/01/09 04:34:17;;;;;;;17.42;11.40;;;;;;;-0.45;67.40;96026.25;5079873;28;20049;-57
2021/01/09 04:36:46;;;;;;;18.55;11.73;;;;;;;-0.52;67.39;96026.16;5048093;28;20056;-56
2021/01/09 04:39:16;;;;;;;17.60;11.25;;;;;;;-0.56;67.12;96030.09;5064074;28;20071;-57
2021/01/09 04:41:43;;;;;;;16.33;11.20;;;;;;;-0.53;67.61;96034.09;5067144;28;20048;-56
2021/01/09 04:44:13;;;;;;;18.23;11.93;;;;;;;-0.57;67.86;96033.69;5062192;28;20048;-57
2021/01/09 04:46:51;;;;;;;19.60;11.82;;;;;;;-0.58;67.99;96046.81;5063310;28;20052;-57
2021/01/09 04:49:23;;;;;;;15.50;11.70;;;;;;;-0.61;68.17;96037.59;5066756;28;20059;-57
2021/01/09 04:51:52;;;;;;;18.05;11.10;;;;;;;-0.65;67.72;96046.75;5067086;28;20055;-56
2021/01/09 04:54:22;;;;;;;22.83;12.68;;;;;;;-0.67;68.19;96044.31;5063554;28;20063;-57
2021/01/09 04:56:54;;;;;;;21.15;11.93;;;;;;;-0.66;67.88;96038.16;5066259;28;20044;-57
2021/01/09 04:59:23;;;;;;;16.63;10.38;;;;;;;-0.73;68.23;96024.34;5071418;28;20037;-57
2021/01/09 05:01:52;;;;;;;19.17;12.00;;;;;;;-0.64;68.39;96046.56;5063281;28;20195;-57
2021/01/09 05:04:20;;;;;;;16.33;11.02;;;;;;;-0.62;68.06;96039.41;5081474;28;20055;-58
2021/01/09 05:06:51;;;;;;;18.35;11.68;;;;;;;-0.58;67.46;96039.06;5061770;28;20071;-56
2021/01/09 05:09:20;;;;;;;20.60;10.57;;;;;;;-0.56;68.01;96044.84;5066768;28;20032;-58
2021/01/09 05:11:47;;;;;;;15.32;10.38;;;;;;;-0.57;67.85;96043.25;5065201;28;20051;-58
2021/01/09 05:14:15;;;;;;;18.15;11.05;;;;;;;-0.61;68.04;96037.59;5063571;28;20039;-59
2021/01/09 05:16:43;;;;;;;17.17;11.07;;;;;;;-0.64;68.00;96050.94;5062601;28;20059;-58
2021/01/09 05:19:16;;;;;;;16.83;11.18;;;;;;;-0.80;68.20;96034.63;5064151;28;20044;-59
2021/01/09 05:21:46;;;;;;;16.42;12.48;;;;;;;-0.62;67.62;96067.91;5048974;28;20060;-58
2021/01/09 05:24:17;;;;;;;15.10;9.52;;;;;;;-0.65;67.62;96055.31;5048789;28;20060;-58
2021/01/09 05:26:48;;;;;;;14.73;10.23;;;;;;;-0.65;67.72;96057.91;5053592;28;20439;-57
2021/01/09 05:29:17;;;;;;;17.30;11.27;;;;;;;-0.58;67.76;96080.50;5065165;28;20458;-57
2021/01/09 05:31:45;;;;;;;15.15;10.52;;;;;;;-0.64;67.97;96080.22;5048271;28;22113;-61
2021/01/09 05:34:13;;;;;;;17.30;10.75;;;;;;;-0.64;68.34;96077.66;5077432;28;20074;-57
2021/01/09 05:36:41;;;;;;;15.68;9.98;;;;;;;-0.64;68.29;96082.81;5088781;28;20411;-57
2021/01/09 05:39:08;;;;;;;12.77;8.25;;;;;;;-0.67;68.38;96083.19;5062924;28;20691;-57
2021/01/09 05:41:41;;;;;;;15.00;9.85;;;;;;;-0.73;68.37;96091.69;5076521;28;20047;-57
2021/01/09 05:44:10;;;;;;;11.77;8.25;;;;;;;-0.78;68.31;96088.81;5085251;28;20063;-57
2021/01/09 05:46:40;;;;;;;12.30;7.05;;;;;;;-0.79;68.34;96093.22;5085130;28;20095;-57
2021/01/09 05:49:27;;;;;;;13.38;7.85;;;;;;;-0.81;68.05;96094.38;5071527;28;20055;-57
2021/01/09 05:51:56;;;;;;;15.18;9.27;;;;;;;-0.89;67.79;96100.44;5075197;28;20063;-57
2021/01/09 05:54:34;;;;;;;13.90;8.05;;;;;;;-1.15;68.36;96080.16;5086979;28;20511;-57
2021/01/09 05:57:05;;;;;;;12.65;8.15;;;;;;;-1.20;68.91;96103.97;5088012;28;20069;-58
2021/01/09 05:59:33;;;;;;;10.02;7.72;;;;;;;-1.20;69.03;96118.72;5088532;28;20067;-57
2021/01/09 06:02:01;;;;;;;15.10;9.35;;;;;;;-1.28;69.43;96119.59;5075586;28;20063;-57
2021/01/09 06:04:32;;;;;;;11.43;7.75;;;;;;;-1.42;69.37;96105.66;5089528;28;20684;-57
2021/01/09 06:07:20;;;;;;;12.43;8.68;;;;;;;-1.30;69.97;96127.53;5089675;28;20047;-57
2021/01/09 06:10:06;;;;;;;15.27;8.40;;;;;;;-1.25;69.86;96132.97;5070743;28;20044;-57
2021/01/09 06:12:54;;;;;;;14.60;9.30;;;;;;;-1.19;69.52;96130.69;5082173;28;20284;-57
2021/01/09 06:15:29;;;;;;;11.20;8.25;;;;;;;-1.31;69.78;96109.59;5084962;28;20050;-57
2021/01/09 06:17:59;;;;;;;14.18;9.07;;;;;;;-1.36;69.67;96111.91;5089546;28;20039;-57
2021/01/09 06:20:27;;;;;;;13.68;8.85;;;;;;;-1.37;69.87;96116.25;5092921;28;20044;-57
2021/01/09 06:22:55;;;;;;;14.93;9.43;;;;;;;-1.32;70.10;96139.03;5081809;28;20054;-57
2021/01/09 06:25:22;;;;;;;15.52;9.60;;;;;;;-1.32;70.39;96145.03;5080681;28;20047;-57
2021/01/09 06:28:00;;;;;;;14.93;8.95;;;;;;;-1.29;70.29;96146.44;5085073;28;20056;-57
2021/01/09 06:30:48;;;;;;;14.38;9.10;;;;;;;-1.27;70.20;96140.13;5091759;27;20055;-57
2021/01/09 06:33:24;;;;;;;13.27;9.07;;;;;;;-1.31;70.51;96131.09;5101925;27;20044;-57
2021/01/09 06:35:54;;;;;;;14.65;9.50;;;;;;;-1.26;70.95;96144.31;5080188;28;20431;-57
2021/01/09 06:38:23;;;;;;;14.48;9.27;;;;;;;-1.29;71.52;96139.47;5087280;28;20047;-57
2021/01/09 06:40:52;;;;;;;13.68;9.25;;;;;;;-1.33;71.20;96151.19;5082774;28;20055;-57
2021/01/09 06:43:21;;;;;;;15.27;9.25;;;;;;;-1.40;71.82;96148.47;5088986;28;20040;-57
2021/01/09 06:45:49;;;;;;;18.85;11.45;;;;;;;-1.40;71.52;96155.41;5072323;28;20063;-57
2021/01/09 06:48:17;;;;;;;13.70;10.00;;;;;;;-1.37;72.02;96162.06;5081007;28;20052;-57
2021/01/09 06:50:45;;;;;;;16.98;11.45;;;;;;;-1.26;71.84;96162.44;5085166;28;20428;-57
2021/01/09 06:53:14;;;;;;;15.93;11.05;;;;;;;-1.13;71.59;96168.78;5082279;28;20061;-57
2021/01/09 06:55:41;;;;;;;16.50;11.57;;;;;;;-1.14;71.54;96162.81;5080678;28;20059;-57
2021/01/09 06:58:22;;;;;;;17.08;11.20;;;;;;;-1.21;71.08;96151.53;5083196;28;20058;-57
2021/01/09 07:01:20;;;;;;;19.20;12.98;;;;;;;-1.09;71.43;96170.84;5082514;28;20517;-57
2021/01/09 07:03:48;;;;;;;15.60;10.60;;;;;;;-0.99;71.01;96170.63;5085052;28;20067;-58
2021/01/09 07:06:15;;;;;;;17.70;11.93;;;;;;;-0.87;70.76;96178.78;5062621;28;20392;-57
2021/01/09 07:08:46;;;;;;;15.50;11.23;;;;;;;-0.88;71.13;96184.09;5084753;28;20067;-57
2021/01/09 07:11:15;;;;;;;18.15;12.30;;;;;;;-0.90;71.24;96179.13;5054550;28;20055;-57
2021/01/09 07:13:43;;;;;;;19.73;12.82;;;;;;;-0.87;70.93;96185.72;5088609;28;20295;-57
2021/01/09 07:16:14;;;;;;;18.38;12.60;;;;;;;-0.78;70.85;96189.84;5087469;28;20737;-57
2021/01/09 07:18:47;;;;;;;19.60;12.88;;;;;;;-0.78;70.58;96166.53;5093633;28;20039;-57
2021/01/09 07:21:19;;;;;;;20.98;12.15;;;;;;;-0.73;70.22;96169.41;5077346;28;20048;-58
2021/01/09 07:23:55;;;;;;;16.95;12.07;;;;;;;-0.56;69.91;96184.78;5083994;28;20500;-58
2021/01/09 07:26:24;;;;;;;17.63;10.80;;;;;;;-0.74;70.64;96172.97;5092111;28;20079;-59
2021/01/09 07:28:52;;;;;;;21.98;13.82;;;;;;;-0.60;70.20;96179.13;5072840;28;20051;-57
2021/01/09 07:31:24;;;;;;;18.77;11.15;;;;;;;-0.73;70.12;96173.75;5064509;28;20058;-58
2021/01/09 07:33:57;;;;;;;15.93;10.93;;;;;;;-0.60;69.95;96183.53;5083804;28;20054;-57
2021/01/09 07:36:29;;;;;;;16.17;10.77;;;;;;;-0.59;70.36;96191.09;5088828;28;20039;-57
2021/01/09 07:39:05;;;;;;;16.70;12.05;;;;;;;-0.71;70.52;96180.38;5084885;28;20048;-56
2021/01/09 07:41:36;;;;;;;21.33;11.63;;;;;;;-0.56;70.71;96193.34;5108323;28;20051;-57
2021/01/09 07:44:18;;;;;;;21.20;13.63;;;;;;;-0.48;70.17;96192.47;5073875;28;20051;-57
2021/01/09 07:47:05;;;;;;;20.30;13.57;;;;;;;-0.60;70.57;96183.53;5095366;28;20042;-56
2021/01/09 07:49:37;;;;;;;23.92;15.07;;;;;;;-0.54;71.52;96209.53;5076781;27;20035;-57
2021/01/09 07:52:08;;;;;;;22.00;15.52;;;;;;;-0.50;71.08;96222.94;5083885;28;20047;-62
2021/01/09 07:54:47;;;;;;;21.25;13.13;;;;;;;-0.46;70.76;96206.03;5108656;28;20055;-56
2021/01/09 07:57:20;;;;;;;21.73;15.07;;;;;;;-0.38;71.32;96203.34;5106243;27;20051;-56
2021/01/09 08:00:01;;;;;;;28.15;17.00;;;;;;;-0.32;70.67;96205.25;5108455;27;20044;-57
2021/01/09 08:02:28;;;;;;;23.70;15.52;;;;;;;-0.22;70.32;96201.56;5085510;27;20055;-57
2021/01/09 08:05:09;;;;;;;22.55;15.90;;;;;;;-0.13;69.76;96205.66;5104290;27;20055;-56
2021/01/09 08:07:38;;;;;;;25.17;15.60;;;;;;;-0.07;69.43;96199.78;5087208;27;20043;-56
2021/01/09 08:10:15;;;;;;;24.45;15.60;;;;;;;-0.05;69.55;96197.78;5104856;27;20044;-56
2021/01/09 08:12:43;;;;;;;27.60;17.33;;;;;;;-0.14;69.63;96193.69;5084848;27;20051;-57
2021/01/09 08:15:11;;;;;;;23.92;15.20;;;;;;;-0.13;68.98;96197.88;5088611;27;20047;-56
2021/01/09 08:17:40;;;;;;;23.27;15.30;;;;;;;-0.10;69.70;96194.13;5084853;27;20548;-57
2021/01/09 08:20:10;;;;;;;24.92;15.90;;;;;;;0.02;69.54;96197.84;5107345;27;20055;-57
2021/01/09 08:22:50;;;;;;;30.67;16.85;;;;;;;0.05;68.75;96186.34;5104880;27;20668;-57
2021/01/09 08:25:19;;;;;;;24.50;14.85;;;;;;;0.21;68.51;96213.84;5074814;28;20047;-57
2021/01/09 08:27:54;;;;;;;30.27;17.00;;;;;;;0.21;67.63;96216.44;5095009;27;20475;-56
2021/01/09 08:30:26;;;;;;;31.25;16.52;;;;;;;0.17;68.54;96204.81;5116791;27;20070;-57
2021/01/09 08:33:15;;;;;;;27.05;18.27;;;;;;;0.27;68.61;96207.91;5077829;27;20083;-57
2021/01/09 08:35:48;;;;;;;27.17;17.55;;;;;;;0.30;68.15;96215.34;5084128;27;20050;-58
2021/01/09 08:38:17;;;;;;;25.48;15.23;;;;;;;0.37;68.32;96215.41;5090933;27;20054;-57
2021/01/09 08:40:59;;;;;;;22.40;14.75;;;;;;;0.37;67.51;96199.84;5120439;27;20047;-57
2021/01/09 08:43:36;;;;;;;24.65;14.98;;;;;;;0.48;67.21;96212.34;5098548;27;20039;-56
2021/01/09 08:46:05;;;;;;;22.77;13.88;;;;;;;0.48;66.97;96222.72;5113405;27;20415;-59
2021/01/09 08:48:36;;;;;;;23.38;13.98;;;;;;;0.23;66.81;96204.09;5077563;27;20427;-61
2021/01/09 08:51:10;;;;;;;24.80;14.48;;;;;;;0.33;66.90;96224.53;5106943;27;20055;-62
2021/01/09 08:53:57;;;;;;;24.30;15.10;;;;;;;0.30;66.89;96223.94;5115915;27;20050;-57
2021/01/09 08:56:30;;;;;;;23.42;14.23;;;;;;;0.24;67.63;96222.06;5087277;27;20059;-57
2021/01/09 08:59:05;;;;;;;23.13;15.38;;;;;;;0.26;67.78;96227.88;5096627;27;20047;-57
2021/01/09 09:01:45;;;;;;;23.05;15.00;;;;;;;0.29;66.62;96227.53;5112953;27;20389;-57
2021/01/09 09:04:16;;;;;;;20.58;13.82;;;;;;;0.42;66.10;96228.66;5059621;27;20418;-57
2021/01/09 09:06:58;;;;;;;19.67;13.23;;;;;;;0.51;65.30;96227.53;5087194;27;20036;-56
2021/01/09 09:09:29;;;;;;;16.05;11.05;;;;;;;0.53;64.55;96216.97;5092660;27;20396;-59
2021/01/09 09:11:56;;;;;;;19.00;11.23;;;;;;;0.62;64.40;96208.06;5091571;27;20121;-59
2021/01/09 09:14:26;;;;;;;17.25;11.98;;;;;;;0.84;63.63;96221.84;5114501;27;20164;-58
2021/01/09 09:16:59;;;;;;;16.75;10.95;;;;;;;1.00;63.32;96225.19;5096620;27;20063;-58
2021/01/09 09:19:27;;;;;;;20.58;12.88;;;;;;;0.91;63.32;96206.34;5105036;27;20402;-58
2021/01/09 09:21:59;;;;;;;18.45;12.63;;;;;;;1.04;64.11;96226.44;5076580;27;20872;-58
2021/01/09 09:24:43;;;;;;;16.90;10.40;;;;;;;1.14;63.23;96228.69;5074365;27;20055;-59
2021/01/09 09:27:22;;;;;;;16.77;11.23;;;;;;;1.22;63.39;96231.97;5076085;27;20047;-59
2021/01/09 09:30:09;;;;;;;18.13;11.85;;;;;;;1.29;63.10;96203.44;5090464;28;20052;-58
2021/01/09 09:32:37;;;;;;;20.90;11.13;;;;;;;1.64;62.93;96229.44;5061342;28;22494;-60
2021/01/09 09:35:38;;;;;;;18.65;12.98;;;;;;;1.81;62.20;96221.34;5083653;28;20055;-60
2021/01/09 09:38:06;;;;;;;20.98;13.18;;;;;;;1.88;61.78;96201.34;5067573;28;20294;-59
2021/01/09 09:40:34;;;;;;;23.23;13.70;;;;;;;1.99;61.27;96221.63;5074441;28;20051;-59
2021/01/09 09:43:16;;;;;;;24.17;14.77;;;;;;;1.93;61.70;96213.78;5081918;27;20364;-59
2021/01/09 09:45:58;;;;;;;24.25;16.08;;;;;;;2.07;61.44;96231.06;5080784;28;20055;-57
2021/01/09 09:48:36;;;;;;;27.95;15.80;;;;;;;2.11;60.76;96231.47;5084529;27;20052;-57
2021/01/09 09:51:09;;;;;;;21.83;14.90;;;;;;;2.14;60.92;96229.31;5078722;28;20312;-59
2021/01/09 09:53:42;;;;;;;26.52;16.45;;;;;;;2.12;60.09;96228.69;5061562;28;20549;-59
2021/01/09 09:56:16;;;;;;;29.90;18.52;;;;;;;1.92;61.29;96209.56;5078012;27;20074;-58
2021/01/09 09:58:43;;;;;;;23.60;15.85;;;;;;;2.11;60.95;96223.66;5075009;28;20373;-59
2021/01/09 10:01:21;;;;;;;18.83;11.52;;;;;;;2.19;59.42;96220.09;5083334;28;20040;-60
2021/01/09 10:03:49;;;;;;;25.23;16.67;;;;;;;2.19;59.50;96223.53;5075536;28;20055;-62
2021/01/09 10:06:17;;;;;;;23.00;14.35;;;;;;;2.20;60.25;96219.09;5078467;28;20500;-59
2021/01/09 10:08:45;;;;;;;24.10;14.63;;;;;;;2.23;60.58;96216.13;5062394;28;20043;-58
2021/01/09 10:11:13;;;;;;;17.55;12.02;;;;;;;2.10;58.38;96209.88;5080793;28;20039;-59
2021/01/09 10:13:40;;;;;;;14.02;9.70;;;;;;;2.05;58.92;96211.44;5050026;28;20058;-60
2021/01/09 10:16:07;;;;;;;19.60;11.32;;;;;;;2.00;58.95;96193.81;5083644;28;20048;-60
2021/01/09 10:18:35;;;;;;;19.58;12.45;;;;;;;1.93;60.03;96191.19;5083068;27;20056;-59
2021/01/09 10:21:06;;;;;;;18.80;11.60;;;;;;;2.02;60.14;96204.84;5073492;28;20528;-58
2021/01/09 10:23:34;;;;;;;19.92;12.00;;;;;;;1.92;60.18;96189.59;5086041;28;20048;-58
2021/01/09 10:26:01;;;;;;;20.50;11.90;;;;;;;1.95;59.89;96188.38;5094052;28;20050;-62
2021/01/09 10:28:32;;;;;;;16.55;12.20;;;;;;;1.97;59.28;96199.41;5075502;27;20047;-59
2021/01/09 10:31:00;;;;;;;18.50;11.85;;;;;;;1.84;59.66;96190.53;5041485;28;20471;-59
2021/01/09 10:33:27;;;;;;;19.60;10.80;;;;;;;1.97;59.87;96207.22;5059809;28;20056;-61
2021/01/09 10:35:54;;;;;;;15.50;11.45;;;;;;;1.92;59.33;96196.56;5071669;28;20059;-60
2021/01/09 10:38:22;;;;;;;22.13;12.43;;;;;;;1.80;59.37;96184.09;5056413;28;20059;-61
2021/01/09 10:40:50;;;;;;;16.85;11.82;;;;;;;1.84;59.48;96189.75;5057348;28;20448;-60
2021/01/09 10:43:17;;;;;;;16.50;10.00;;;;;;;1.79;58.98;96195.50;5076028;28;20435;-61
2021/01/09 10:45:44;;;;;;;13.90;9.20;;;;;;;1.85;58.18;96193.94;5058589;28;20055;-59
2021/01/09 10:48:11;;;;;;;27.75;14.05;;;;;;;1.84;59.21;96184.56;5081305;28;20390;-59
2021/01/09 10:50:39;;;;;;;27.65;16.10;;;;;;;1.83;60.17;96191.53;5056242;28;20043;-60
2021/01/09 10:53:06;;;;;;;26.60;17.08;;;;;;;1.78;60.17;96195.72;5069972;28;20044;-61
2021/01/09 10:55:36;;;;;;;29.83;16.35;;;;;;;1.80;60.31;96194.50;5057035;28;20059;-61
2021/01/09 10:58:04;;;;;;;31.75;18.33;;;;;;;1.67;60.43;96178.84;5088654;28;20047;-61
2021/01/09 11:00:31;;;;;;;24.02;14.98;;;;;;;1.57;61.04;96175.78;5073044;28;20032;-60
2021/01/09 11:02:59;;;;;;;22.63;15.40;;;;;;;1.62;60.88;96176.03;5050774;28;20055;-60
2021/01/09 11:05:30;;;;;;;28.10;16.80;;;;;;;1.80;61.65;96189.31;5025741;28;20055;-60
2021/01/09 11:07:57;;;;;;;23.25;15.80;;;;;;;1.74;61.64;96182.28;5069528;28;20053;-60
2021/01/09 11:10:24;;;;;;;21.95;14.35;;;;;;;1.79;62.06;96187.72;5072927;28;20055;-59
2021/01/09 11:13:05;;;;;;;27.85;15.80;;;;;;;1.85;62.39;96191.31;5070611;28;20047;-60
2021/01/09 11:15:32;;;;;;;22.98;15.73;;;;;;;1.88;62.25;96197.97;5042383;28;20526;-58
2021/01/09 11:18:00;;;;;;;23.25;14.60;;;;;;;1.78;62.61;96175.72;5071405;28;20051;-61
2021/01/09 11:20:27;;;;;;;23.42;13.88;;;;;;;1.88;62.61;96197.97;5054142;28;20051;-59
2021/01/09 11:22:55;;;;;;;24.92;15.90;;;;;;;1.87;62.62;96185.97;5075478;28;20670;-59
2021/01/09 11:25:25;;;;;;;20.92;13.75;;;;;;;1.82;62.46;96189.94;5052345;28;20055;-59
2021/01/09 11:27:56;;;;;;;20.70;12.90;;;;;;;1.78;62.16;96196.53;5070011;28;20055;-59
2021/01/09 11:30:25;;;;;;;26.63;16.65;;;;;;;1.80;63.07;96188.53;5097246;27;20341;-59
2021/01/09 11:32:53;;;;;;;24.25;16.55;;;;;;;1.76;63.20;96188.13;5106292;27;20043;-60
2021/01/09 11:35:22;;;;;;;25.45;17.38;;;;;;;1.78;63.51;96191.31;5086763;27;20550;-60
2021/01/09 11:37:50;;;;;;;23.83;15.32;;;;;;;1.83;63.50;96181.13;5097128;27;20048;-59